XA41 weather

Lone Star Flying Service Airport
Harper, Texas, United States

Public forecast

Using degrees Fahrenheit for public forecast. Weather courtesy of forecast.io.

Closest aviation weather report (METAR) to Lone Star Flying Service Airport

Closest report is Gillespie County Airport, 18.8 nm (34.8 km) ESE. Retrieved 2019/10/18 18:35 UTC (0 seconds ago):

KT82 181835Z AUTO 21006KT 10SM CLR 26/09 A2981 RMK AO2 T02610091

Closest aviation forecast (TAF) to Lone Star Flying Service Airport

Closest forecast is Kimble County Airport, 28.3 nm (52.4 km) WNW. Retrieved 2019/10/18 18:22 UTC (0 seconds ago):

TAF KJCT 181720Z 1818/1918 20010KT P6SM SKC FM190100 VRB06KT P6SM BKN080